createdAt,value
2018-04-19T00:02:15.415Z,53.85
2018-04-19T00:04:43.071Z,54.04
2018-04-19T00:07:10.715Z,54.87
2018-04-19T00:09:38.378Z,55.45
2018-04-19T00:12:05.978Z,55.75
2018-04-19T00:14:33.637Z,55.24
2018-04-19T00:17:01.259Z,54.60
2018-04-19T00:19:28.949Z,55.46
2018-04-19T00:21:56.571Z,55.60
2018-04-19T00:24:24.241Z,55.37
2018-04-19T00:26:51.895Z,54.96
2018-04-19T00:29:19.654Z,55.29
2018-04-19T00:31:47.329Z,54.92
2018-04-19T00:34:14.999Z,55.30
2018-04-19T00:36:42.614Z,55.17
2018-04-19T00:39:10.282Z,55.11
2018-04-19T00:41:37.890Z,55.60
2018-04-19T00:44:05.557Z,56.39
2018-04-19T00:46:33.298Z,57.35
2018-04-19T00:49:00.926Z,57.28
2018-04-19T00:51:28.591Z,57.88
2018-04-19T00:53:56.231Z,58.24
2018-04-19T00:56:23.880Z,57.94
2018-04-19T00:58:51.515Z,57.86
2018-04-19T01:01:19.168Z,57.59
2018-04-19T01:03:46.801Z,57.41
2018-04-19T01:06:14.487Z,58.02
2018-04-19T01:08:42.100Z,57.99
2018-04-19T01:11:09.758Z,58.39
2018-04-19T01:13:37.385Z,58.76
2018-04-19T01:16:05.052Z,59.25
2018-04-19T01:18:32.667Z,59.57
2018-04-19T01:21:00.402Z,59.43
2018-04-19T01:23:28.006Z,60.45
2018-04-19T01:25:55.654Z,60.14
2018-04-19T01:28:23.308Z,59.92
2018-04-19T01:30:50.960Z,59.69
2018-04-19T01:33:18.589Z,59.55
2018-04-19T01:35:58.088Z,59.27
2018-04-19T01:38:25.696Z,59.38
2018-04-19T01:40:53.347Z,59.77
2018-04-19T01:43:21.027Z,59.96
2018-04-19T01:45:48.700Z,60.41
2018-04-19T01:48:16.307Z,60.88
2018-04-19T01:50:43.971Z,60.93
2018-04-19T01:53:11.587Z,61.23
2018-04-19T01:55:39.250Z,61.40
2018-04-19T01:58:06.881Z,61.25
2018-04-19T02:00:34.548Z,61.53
2018-04-19T02:03:02.154Z,61.47
2018-04-19T02:05:29.817Z,61.15
2018-04-19T02:07:57.434Z,61.17
2018-04-19T02:10:25.091Z,61.09
2018-04-19T02:12:52.699Z,61.10
2018-04-19T02:15:20.367Z,61.43
2018-04-19T02:17:47.992Z,61.11
2018-04-19T02:20:15.655Z,61.42
2018-04-19T02:22:43.279Z,61.50
2018-04-19T02:25:10.935Z,61.86
2018-04-19T02:27:38.571Z,61.52
2018-04-19T02:30:06.224Z,61.56
2018-04-19T02:32:33.828Z,61.61
2018-04-19T02:35:01.607Z,62.25
2018-04-19T02:37:29.231Z,61.76
2018-04-19T02:39:56.887Z,61.49
2018-04-19T02:42:24.504Z,61.86
2018-04-19T02:44:52.163Z,61.44
2018-04-19T02:47:19.768Z,61.78
2018-04-19T02:49:47.431Z,61.85
2018-04-19T02:52:15.055Z,61.96
2018-04-19T02:54:42.715Z,62.34
2018-04-19T02:57:10.325Z,62.21
2018-04-19T02:59:38.002Z,62.00
2018-04-19T03:02:05.616Z,62.70
2018-04-19T03:04:33.263Z,62.89
2018-04-19T03:07:00.920Z,63.13
2018-04-19T03:09:28.558Z,63.30
2018-04-19T03:11:56.237Z,63.69
2018-04-19T03:14:23.847Z,63.70
2018-04-19T03:16:51.504Z,63.87
2018-04-19T03:19:19.128Z,64.05
2018-04-19T03:21:46.795Z,63.98
2018-04-19T03:24:14.402Z,64.01
2018-04-19T03:26:42.087Z,64.05
2018-04-19T03:29:09.715Z,63.99
2018-04-19T03:31:37.380Z,64.21
2018-04-19T03:34:05.051Z,64.06
2018-04-19T03:36:32.719Z,64.09
2018-04-19T03:39:00.349Z,64.14
2018-04-19T03:41:28.050Z,63.82
2018-04-19T03:43:55.658Z,63.69
2018-04-19T03:46:23.315Z,64.23
2018-04-19T03:48:50.969Z,64.02
2018-04-19T03:51:18.620Z,64.17
2018-04-19T03:53:46.270Z,64.16
2018-04-19T03:56:13.998Z,64.33
2018-04-19T03:58:41.618Z,64.53
2018-04-19T04:01:09.283Z,64.59
2018-04-19T04:03:36.907Z,64.60
2018-04-19T04:06:04.621Z,64.91
2018-04-19T04:08:32.234Z,65.34
2018-04-19T04:10:59.882Z,65.86
2018-04-19T04:13:27.511Z,65.28
2018-04-19T04:15:55.171Z,64.94
2018-04-19T04:18:34.699Z,65.38
2018-04-19T04:21:14.967Z,65.58
2018-04-19T04:23:52.473Z,65.49
2018-04-19T04:26:20.145Z,65.54
2018-04-19T04:28:47.769Z,65.40
2018-04-19T04:31:15.503Z,65.18
2018-04-19T04:33:43.112Z,65.09
2018-04-19T04:36:10.794Z,64.68
2018-04-19T04:38:38.411Z,65.91
2018-04-19T04:41:06.103Z,64.75
2018-04-19T04:43:33.731Z,64.11
2018-04-19T04:46:01.392Z,63.64
2018-04-19T04:48:29.032Z,63.34
2018-04-19T04:50:56.751Z,63.03
2018-04-19T04:53:24.417Z,62.12
2018-04-19T04:55:52.080Z,62.12
2018-04-19T04:58:19.727Z,61.83
2018-04-19T05:00:47.396Z,61.43
2018-04-19T05:03:15.006Z,61.15
2018-04-19T05:05:42.678Z,61.22
2018-04-19T05:08:10.331Z,60.77
2018-04-19T05:10:37.991Z,60.04
2018-04-19T05:13:05.620Z,59.91
2018-04-19T05:15:33.391Z,60.16
2018-04-19T05:18:01.014Z,59.39
2018-04-19T05:20:28.675Z,60.01
2018-04-19T05:22:56.283Z,58.42
2018-04-19T05:25:23.890Z,57.96
2018-04-19T05:27:51.550Z,57.57
2018-04-19T05:30:19.197Z,58.38
2018-04-19T05:32:46.895Z,58.12
2018-04-19T05:35:14.519Z,58.43
2018-04-19T05:37:42.422Z,58.51
2018-04-19T05:40:10.085Z,57.98
2018-04-19T05:42:37.803Z,59.21
2018-04-19T05:45:05.409Z,58.08
2018-04-19T05:47:33.080Z,57.96
2018-04-19T05:50:00.700Z,57.06
2018-04-19T05:52:28.431Z,56.86
2018-04-19T05:54:56.072Z,55.83
2018-04-19T05:57:23.787Z,54.81
2018-04-19T05:59:51.423Z,54.29
2018-04-19T06:02:19.194Z,53.78
2018-04-19T06:04:46.864Z,53.34
2018-04-19T06:07:14.531Z,52.33
2018-04-19T06:09:42.143Z,51.98
2018-04-19T06:12:09.926Z,51.27
2018-04-19T06:14:37.550Z,51.16
2018-04-19T06:17:05.245Z,50.41
2018-04-19T06:19:32.930Z,50.25
2018-04-19T06:22:00.619Z,49.90
2018-04-19T06:24:28.234Z,48.26
2018-04-19T06:26:55.895Z,48.33
2018-04-19T06:29:23.510Z,49.57
2018-04-19T06:31:51.172Z,49.77
2018-04-19T06:34:18.780Z,49.28
2018-04-19T06:36:46.435Z,48.02
2018-04-19T06:39:14.054Z,47.22
2018-04-19T06:41:41.710Z,46.85
2018-04-19T06:44:09.364Z,46.29
2018-04-19T06:46:37.090Z,44.63
2018-04-19T06:49:04.740Z,44.12
2018-04-19T06:51:32.402Z,43.39
2018-04-19T06:54:00.049Z,44.46
2018-04-19T06:56:27.704Z,43.73
2018-04-19T06:58:55.328Z,44.52
2018-04-19T07:01:22.990Z,42.25
2018-04-19T07:03:50.607Z,42.63
2018-04-19T07:06:18.271Z,41.34
2018-04-19T07:08:45.902Z,38.56
2018-04-19T07:11:13.548Z,38.88
2018-04-19T07:13:41.162Z,38.82
2018-04-19T07:16:08.810Z,37.92
2018-04-19T07:18:36.419Z,37.88
2018-04-19T07:21:04.087Z,37.80
2018-04-19T07:23:31.727Z,35.79
2018-04-19T07:25:59.388Z,34.01
2018-04-19T07:28:27.000Z,32.57
2018-04-19T07:30:54.715Z,36.42
2018-04-19T07:33:22.353Z,37.76
2018-04-19T07:35:50.093Z,37.69
2018-04-19T07:38:17.957Z,40.40
2018-04-19T07:40:45.722Z,39.50
2018-04-19T07:43:13.384Z,37.40
2018-04-19T07:45:41.148Z,38.70
2018-04-19T07:48:08.855Z,37.61
2018-04-19T07:50:36.569Z,38.94
2018-04-19T07:53:04.513Z,37.72
2018-04-19T07:55:32.307Z,38.62
2018-04-19T07:58:00.175Z,37.29
2018-04-19T08:00:27.938Z,36.62
2018-04-19T08:02:55.704Z,36.37
2018-04-19T08:05:23.481Z,35.57
2018-04-19T08:07:51.239Z,36.23
2018-04-19T08:10:19.005Z,34.81
2018-04-19T08:12:46.821Z,35.52
2018-04-19T08:15:14.629Z,36.11
2018-04-19T08:17:42.496Z,34.20
2018-04-19T08:20:10.236Z,34.10
2018-04-19T08:22:38.028Z,33.05
2018-04-19T08:25:05.789Z,35.17
2018-04-19T08:27:33.657Z,34.74
2018-04-19T08:30:01.420Z,34.48
2018-04-19T08:32:29.235Z,34.40
2018-04-19T08:34:57.056Z,34.10
2018-04-19T08:37:24.920Z,34.33
2018-04-19T08:39:52.684Z,33.42
2018-04-19T08:42:20.562Z,34.22
2018-04-19T08:44:48.314Z,34.07
2018-04-19T08:47:16.077Z,32.16
2018-04-19T08:49:43.801Z,31.99
2018-04-19T08:52:11.710Z,31.58
2018-04-19T08:54:39.374Z,32.27
2018-04-19T08:57:07.133Z,31.05
2018-04-19T08:59:34.995Z,30.38
2018-04-19T09:02:02.665Z,31.56
2018-04-19T09:04:30.341Z,30.45
2018-04-19T09:06:58.158Z,29.42
2018-04-19T09:09:25.972Z,30.36
2018-04-19T09:11:53.838Z,30.10
2018-04-19T09:14:21.698Z,31.07
2018-04-19T09:16:49.422Z,30.17
2018-04-19T09:19:17.230Z,29.47
2018-04-19T09:21:44.948Z,28.85
2018-04-19T09:24:12.692Z,29.77
2018-04-19T09:26:40.518Z,29.03
2018-04-19T09:29:08.383Z,28.07
2018-04-19T09:31:36.151Z,29.11
2018-04-19T09:34:03.960Z,29.41
2018-04-19T09:36:31.793Z,29.19
2018-04-19T09:38:59.654Z,30.27
2018-04-19T09:41:27.410Z,27.78
2018-04-19T09:43:55.278Z,28.16
2018-04-19T09:46:22.939Z,28.50
2018-04-19T09:48:50.778Z,28.61
2018-04-19T09:51:23.592Z,28.34
2018-04-19T09:53:51.611Z,28.37
2018-04-19T09:56:19.423Z,28.73
2018-04-19T09:58:51.183Z,28.11
2018-04-19T10:01:18.867Z,28.12
2018-04-19T10:03:46.711Z,28.44
2018-04-19T10:06:14.608Z,29.58
2018-04-19T10:08:42.445Z,27.43
2018-04-19T10:11:10.168Z,27.39
2018-04-19T10:13:37.938Z,27.19
2018-04-19T10:16:05.668Z,28.59
2018-04-19T10:18:33.505Z,27.34
2018-04-19T10:21:01.266Z,27.48
2018-04-19T10:23:29.036Z,27.47
2018-04-19T10:25:56.794Z,26.21
2018-04-19T10:28:24.516Z,27.40
2018-04-19T10:30:52.287Z,26.84
2018-04-19T10:33:20.090Z,27.18
2018-04-19T10:35:47.957Z,27.64
2018-04-19T10:38:15.694Z,27.21
2018-04-19T10:40:43.588Z,26.87
2018-04-19T10:43:11.455Z,26.92
2018-04-19T10:45:39.284Z,26.56
2018-04-19T10:48:06.985Z,26.62
2018-04-19T10:50:34.763Z,25.64
2018-04-19T10:53:02.593Z,26.97
2018-04-19T10:55:30.486Z,28.49
2018-04-19T10:57:58.260Z,28.51
2018-04-19T11:00:26.144Z,28.86
2018-04-19T11:02:53.981Z,27.97
2018-04-19T11:05:21.848Z,27.85
2018-04-19T11:07:49.612Z,26.46
2018-04-19T11:10:17.443Z,26.17
2018-04-19T11:12:45.142Z,26.15
2018-04-19T11:15:13.006Z,28.46
2018-04-19T11:17:40.771Z,25.91
2018-04-19T11:20:08.639Z,26.15
2018-04-19T11:22:36.418Z,25.70
2018-04-19T11:25:04.180Z,24.84
2018-04-19T11:27:32.040Z,24.33
2018-04-19T11:29:59.901Z,23.54
2018-04-19T11:32:27.666Z,25.04
2018-04-19T11:34:55.329Z,23.10
2018-04-19T11:37:23.193Z,22.73
2018-04-19T11:39:50.863Z,23.21
2018-04-19T11:42:18.726Z,23.61
2018-04-19T11:44:46.385Z,22.01
2018-04-19T11:47:14.251Z,22.06
2018-04-19T11:49:41.964Z,24.27
2018-04-19T11:52:09.674Z,22.70
2018-04-19T11:54:37.394Z,22.95
2018-04-19T11:57:05.515Z,24.34
2018-04-19T11:59:33.383Z,23.09
2018-04-19T12:02:01.159Z,22.19
2018-04-19T12:04:28.912Z,23.14
2018-04-19T12:06:56.574Z,23.69
2018-04-19T12:09:24.321Z,22.46
2018-04-19T12:11:52.001Z,21.26
2018-04-19T12:14:19.802Z,23.75
2018-04-19T12:16:47.427Z,22.08
2018-04-19T12:19:15.241Z,23.84
2018-04-19T12:21:43.162Z,21.01
2018-04-19T12:24:10.927Z,21.76
2018-04-19T12:26:39.820Z,22.95
2018-04-19T12:29:07.690Z,22.04
2018-04-19T12:31:35.448Z,21.87
2018-04-19T12:34:03.628Z,21.19
2018-04-19T12:36:31.486Z,22.32
2018-04-19T12:38:59.358Z,22.90
2018-04-19T12:41:27.432Z,21.46
2018-04-19T12:43:55.988Z,21.08
2018-04-19T12:46:23.741Z,21.16
2018-04-19T12:48:51.642Z,20.29
2018-04-19T12:51:19.304Z,20.96
2018-04-19T12:53:47.172Z,20.83
2018-04-19T12:56:14.903Z,20.64
2018-04-19T12:58:42.642Z,20.43
2018-04-19T13:01:10.258Z,20.29
2018-04-19T13:03:37.977Z,20.71
2018-04-19T13:06:05.711Z,19.61
2018-04-19T13:08:33.669Z,20.45
2018-04-19T13:11:01.511Z,19.62
2018-04-19T13:13:29.291Z,19.25
2018-04-19T13:15:57.052Z,19.51
2018-04-19T13:18:24.917Z,17.91
2018-04-19T13:20:52.685Z,22.40
2018-04-19T13:23:20.552Z,18.10
2018-04-19T13:25:48.354Z,17.91
2018-04-19T13:28:16.181Z,17.80
2018-04-19T13:30:43.945Z,16.85
2018-04-19T13:33:11.812Z,16.02
2018-04-19T13:35:39.552Z,18.76
2018-04-19T13:38:07.343Z,16.76
2018-04-19T13:40:35.106Z,16.47
2018-04-19T13:43:02.871Z,16.96
2018-04-19T13:45:30.599Z,17.18
2018-04-19T13:47:58.399Z,16.74
2018-04-19T13:50:26.071Z,17.24
2018-04-19T13:52:53.719Z,16.92
2018-04-19T13:55:21.318Z,19.50
2018-04-19T13:57:48.982Z,18.19
2018-04-19T14:00:16.604Z,17.47
2018-04-19T14:02:44.259Z,17.80
2018-04-19T14:05:11.880Z,17.48
2018-04-19T14:07:39.539Z,17.22
2018-04-19T14:10:07.184Z,17.73
2018-04-19T14:12:34.890Z,18.44
2018-04-19T14:15:02.524Z,18.17
2018-04-19T14:17:30.211Z,17.53
2018-04-19T14:19:58.031Z,17.73
2018-04-19T14:22:25.667Z,17.36
2018-04-19T14:24:53.343Z,18.42
2018-04-19T14:27:20.963Z,17.12
2018-04-19T14:29:48.610Z,18.54
2018-04-19T14:32:16.223Z,18.50
2018-04-19T14:34:43.876Z,18.07
2018-04-19T14:37:11.487Z,18.22
2018-04-19T14:39:39.125Z,18.15
2018-04-19T14:42:06.765Z,18.79
2018-04-19T14:44:34.407Z,19.66
2018-04-19T14:47:02.033Z,18.75
2018-04-19T14:49:29.685Z,19.57
2018-04-19T14:51:57.290Z,18.14
2018-04-19T14:54:24.968Z,19.29
2018-04-19T14:56:52.581Z,19.52
2018-04-19T14:59:20.282Z,19.12
2018-04-19T15:01:47.908Z,18.75
2018-04-19T15:04:15.571Z,19.46
2018-04-19T15:06:43.175Z,17.86
2018-04-19T15:09:11.043Z,18.57
2018-04-19T15:11:38.913Z,17.95
2018-04-19T15:14:06.783Z,18.03
2018-04-19T15:16:34.515Z,18.66
2018-04-19T15:19:02.305Z,17.85
2018-04-19T15:21:30.273Z,18.95
2018-04-19T15:23:58.113Z,17.97
2018-04-19T15:26:25.906Z,18.24
2018-04-19T15:28:53.724Z,18.12
2018-04-19T15:31:21.455Z,18.77
2018-04-19T15:33:49.302Z,19.58
2018-04-19T15:36:17.040Z,18.25
2018-04-19T15:38:44.831Z,18.90
2018-04-19T15:41:12.680Z,19.11
2018-04-19T15:43:40.427Z,19.08
2018-04-19T15:46:08.229Z,19.19
2018-04-19T15:48:35.995Z,19.87
2018-04-19T15:51:03.605Z,20.03
2018-04-19T15:53:31.254Z,20.09
2018-04-19T15:55:58.889Z,19.86
2018-04-19T15:58:26.743Z,19.71
2018-04-19T16:00:54.509Z,20.05
2018-04-19T16:03:22.378Z,20.27
2018-04-19T16:05:50.140Z,20.44
2018-04-19T16:08:18.026Z,20.62
2018-04-19T16:10:45.874Z,20.48
2018-04-19T16:13:13.849Z,20.92
2018-04-19T16:15:41.607Z,20.62
2018-04-19T16:18:09.582Z,21.17
2018-04-19T16:20:37.334Z,21.50
2018-04-19T16:23:05.102Z,21.15
2018-04-19T16:25:32.974Z,20.50
2018-04-19T16:28:00.735Z,20.48
2018-04-19T16:30:28.501Z,21.87
2018-04-19T16:32:56.184Z,20.37
2018-04-19T16:35:24.031Z,20.48
2018-04-19T16:37:51.897Z,21.25
2018-04-19T16:40:19.660Z,21.29
2018-04-19T16:42:47.536Z,20.46
2018-04-19T16:45:15.393Z,20.10
2018-04-19T16:47:43.156Z,19.84
2018-04-19T16:50:11.047Z,21.35
2018-04-19T16:52:38.788Z,20.50
2018-04-19T16:55:06.450Z,20.53
2018-04-19T16:57:34.071Z,20.89
2018-04-19T17:00:01.719Z,20.96
2018-04-19T17:02:29.441Z,21.55
2018-04-19T17:04:57.304Z,21.41
2018-04-19T17:07:25.069Z,23.13
2018-04-19T17:09:52.835Z,21.90
2018-04-19T17:12:20.601Z,21.63
2018-04-19T17:14:48.388Z,22.00
2018-04-19T17:17:16.120Z,22.36
2018-04-19T17:19:43.892Z,22.56
2018-04-19T17:22:12.479Z,22.63
2018-04-19T17:24:40.288Z,23.62
2018-04-19T17:27:08.106Z,24.44
2018-04-19T17:29:35.937Z,23.34
2018-04-19T17:32:03.840Z,23.88
2018-04-19T17:34:31.539Z,25.33
2018-04-19T17:36:59.266Z,27.21
2018-04-19T17:39:27.134Z,27.25
2018-04-19T17:41:54.857Z,26.45
2018-04-19T17:44:22.631Z,26.52
2018-04-19T17:46:50.326Z,26.64
2018-04-19T17:49:17.978Z,26.09
2018-04-19T17:51:45.697Z,26.25
2018-04-19T17:54:13.520Z,27.29
2018-04-19T17:56:41.385Z,28.18
2018-04-19T17:59:09.109Z,27.41
2018-04-19T18:01:36.919Z,27.14
2018-04-19T18:04:04.675Z,28.36
2018-04-19T18:06:32.367Z,28.09
2018-04-19T18:08:59.979Z,27.83
2018-04-19T18:11:27.628Z,29.09
2018-04-19T18:13:55.234Z,27.53
2018-04-19T18:16:22.912Z,26.58
2018-04-19T18:18:50.579Z,27.25
2018-04-19T18:21:18.412Z,27.25
2018-04-19T18:23:46.075Z,27.20
2018-04-19T18:26:13.831Z,27.20
2018-04-19T18:28:41.552Z,28.26
2018-04-19T18:31:09.275Z,28.58
2018-04-19T18:33:37.135Z,28.84
2018-04-19T18:36:04.897Z,29.17
2018-04-19T18:38:32.764Z,29.13
2018-04-19T18:41:00.529Z,29.23
2018-04-19T18:43:28.400Z,29.07
2018-04-19T18:45:56.124Z,28.83
2018-04-19T18:48:23.925Z,29.08
2018-04-19T18:50:51.690Z,28.67
2018-04-19T18:53:20.114Z,29.50
2018-04-19T18:55:47.889Z,29.57
2018-04-19T18:58:15.703Z,28.78
2018-04-19T19:00:43.465Z,28.93
2018-04-19T19:03:11.354Z,29.21
2018-04-19T19:05:39.097Z,29.33
2018-04-19T19:08:06.862Z,29.55
2018-04-19T19:10:34.620Z,29.93
2018-04-19T19:13:02.393Z,30.27
2018-04-19T19:18:57.887Z,29.92
2018-04-19T19:21:25.653Z,29.78
2018-04-19T19:23:53.545Z,29.92
2018-04-19T19:26:21.493Z,30.20
2018-04-19T19:28:49.376Z,29.34
2018-04-19T19:31:17.182Z,29.66
2018-04-19T19:33:44.998Z,30.27
2018-04-19T19:36:12.869Z,29.73
2018-04-19T19:38:40.731Z,29.90
2018-04-19T19:41:08.603Z,30.25
2018-04-19T19:43:36.672Z,29.66
2018-04-19T19:46:04.402Z,29.53
2018-04-19T19:48:32.102Z,30.45
2018-04-19T19:50:59.939Z,29.76
2018-04-19T19:53:27.737Z,30.30
2018-04-19T19:55:55.519Z,30.55
2018-04-19T19:58:23.478Z,30.53
2018-04-19T20:00:51.237Z,33.34
2018-04-19T20:03:19.004Z,32.40
2018-04-19T20:05:46.937Z,33.66
2018-04-19T20:08:14.745Z,33.34
2018-04-19T20:10:42.576Z,32.39
2018-04-19T20:13:10.378Z,31.75
2018-04-19T20:15:38.207Z,30.61
2018-04-19T20:18:06.020Z,30.90
2018-04-19T20:20:33.880Z,31.93
2018-04-19T20:23:01.608Z,33.90
2018-04-19T20:25:29.411Z,33.33
2018-04-19T20:27:57.141Z,34.65
2018-04-19T20:30:24.947Z,35.09
2018-04-19T20:32:52.776Z,34.16
2018-04-19T20:35:20.684Z,34.25
2018-04-19T20:37:48.444Z,35.66
2018-04-19T20:40:16.316Z,35.66
2018-04-19T20:42:44.078Z,34.35
2018-04-19T20:45:11.948Z,36.13
2018-04-19T20:47:39.676Z,34.79
2018-04-19T20:50:07.387Z,36.34
2018-04-19T20:52:35.115Z,35.79
2018-04-19T20:55:02.807Z,35.99
2018-04-19T20:57:30.469Z,35.50
2018-04-19T20:59:58.176Z,37.00
2018-04-19T21:02:25.828Z,37.78
2018-04-19T21:04:53.596Z,38.14
2018-04-19T21:07:21.251Z,38.11
2018-04-19T21:09:48.979Z,38.35
2018-04-19T21:12:16.669Z,38.85
2018-04-19T21:14:44.389Z,39.05
2018-04-19T21:17:12.088Z,40.05
2018-04-19T21:19:39.841Z,39.79
2018-04-19T21:22:07.498Z,40.74
2018-04-19T21:24:35.213Z,40.33
2018-04-19T21:27:02.951Z,41.66
2018-04-19T21:29:30.673Z,41.92
2018-04-19T21:31:58.308Z,42.15
2018-04-19T21:34:26.005Z,42.18
2018-04-19T21:36:53.669Z,42.72
2018-04-19T21:39:21.316Z,43.57
2018-04-19T21:41:49.001Z,43.24
2018-04-19T21:44:16.640Z,43.48
2018-04-19T21:46:44.364Z,43.57
2018-04-19T21:49:12.010Z,43.32
2018-04-19T21:51:39.729Z,44.80
2018-04-19T21:54:07.375Z,44.62
2018-04-19T21:56:35.097Z,43.78
2018-04-19T21:59:02.781Z,44.45
2018-04-19T22:01:30.476Z,45.17
2018-04-19T22:03:58.113Z,45.30
2018-04-19T22:06:25.791Z,45.79
2018-04-19T22:08:53.504Z,45.72
2018-04-19T22:11:21.202Z,46.18
2018-04-19T22:13:48.871Z,45.57
2018-04-19T22:16:16.541Z,46.38
2018-04-19T22:18:44.205Z,47.02
2018-04-19T22:21:11.873Z,46.98
2018-04-19T22:23:40.770Z,47.02
2018-04-19T22:26:08.487Z,46.50
2018-04-19T22:28:36.162Z,46.06
2018-04-19T22:31:03.871Z,45.94
2018-04-19T22:33:31.535Z,45.58
2018-04-19T22:35:59.234Z,46.24
2018-04-19T22:38:26.892Z,47.02
2018-04-19T22:40:54.614Z,47.23
2018-04-19T22:43:28.733Z,47.67
2018-04-19T22:45:56.484Z,47.74
2018-04-19T22:48:24.147Z,47.98
2018-04-19T22:50:51.999Z,48.12
2018-04-19T22:53:39.711Z,47.55
2018-04-19T22:56:07.610Z,48.02
2018-04-19T22:58:35.256Z,48.54
2018-04-19T23:01:02.973Z,48.36
2018-04-19T23:03:30.639Z,48.31
2018-04-19T23:05:58.320Z,48.67
2018-04-19T23:08:26.007Z,49.05
2018-04-19T23:10:53.722Z,49.82
2018-04-19T23:13:21.404Z,50.28
2018-04-19T23:15:49.108Z,50.34
2018-04-19T23:18:16.761Z,50.39
2018-04-19T23:20:44.491Z,50.77
2018-04-19T23:23:12.161Z,50.96
2018-04-19T23:25:39.898Z,51.24
2018-04-19T23:28:07.527Z,51.23
2018-04-19T23:30:35.302Z,51.37
2018-04-19T23:33:02.998Z,51.65
2018-04-19T23:35:30.701Z,51.72
2018-04-19T23:37:58.360Z,51.45
2018-04-19T23:40:26.058Z,51.75
2018-04-19T23:42:53.721Z,52.06
2018-04-19T23:45:21.449Z,52.04
2018-04-19T23:47:49.082Z,52.23
2018-04-19T23:50:16.809Z,52.24
2018-04-19T23:52:44.460Z,52.28
2018-04-19T23:55:12.165Z,52.63
2018-04-19T23:57:39.852Z,52.72
